Untidy Bookshelves

アクセスカウンタ

zoom RSS *** 多良間空港で時間約120ミリの雨 (5/10) ***

<<   作成日時 : 2014/05/17 20:20   >>

ブログ気持玉 0 / トラックバック 0 / コメント 2

 ちょうど一週間前、先週の土曜日(10日)は沖縄で大雨になりました。
 16時のアメダスを見ると、仲筋の降水量は114ミリ!
 ・・・ですが、キロクアメ ミヤコジマは発表されませんでした。

 下は宮古島地方に発表された、最後の府県情報です。

-------------------------------------------------------------------------------
大雨と雷及び突風に関する宮古島地方気象情報 第5号
平成26年5月10日20時44分 宮古島地方気象台発表

(見出し)
梅雨前線に伴う発達した雨雲は、宮古島地方の東海上に抜け、宮古島市では、土砂災害や低い土地の浸水のおそれはなくなりました。

(本文)
 梅雨前線に伴う発達した雨雲は、宮古島地方の東海上に抜けました。
 宮古島市では、土砂災害や低い土地の浸水のおそれはなくなりました。また、宮古島地方では、落雷や竜巻などの激しい突風、急な強い雨のおそれもなくなりました。

[観測値]
5月10日00時から20時までの総降水量(アメダス速報値)
 多良間空港   151.0ミリ
 宮古島市下里   85.0ミリ
 宮古空港     73.0ミリ
 下地島空港    65.0ミリ
 宮古島市新城   58.5ミリ

1時間最大降水量
 多良間空港   117.5ミリ(10日16時05分)

これで、「大雨と雷及び突風に関する宮古島地方気象情報」を終了します。

-------------------------------------------------------------------------------

 仲筋の名前がどこにもありませんが、これは多良間空港に置き換えられているから。
 多良間空港だけでなく、登場する5地点、すべてアメダス地点名と違いました。

    仲筋    →  多良間空港   
    宮古島  →  宮古島市下里   
    鏡原   →   宮古空港    
    下地   →   下地島空港    
    城辺   →  宮古島市新城 

 それはともかく、多良間空港の1時間降水量の最大値は117.5ミリ。
 宮古島地方の発表基準は120ミリなので、キロクアメ ミヤコジマは発表されなかったわけです。

   (ちなみに、今年に入ってから、時間100ミリ以上の雨は3/13の屋久島に続き、(たぶん)2回目。
    これもキロクアメの対象にはなりませんでした)

 エコーを保存するのを忘れていたので、府県情報で代用。。
 すでに多良間空港を抜けた後ですが・・・。

画像

 少し前の16時。
 衛星画像で見ると、沖縄地方は発達した積乱雲に覆われているのが分かります。

画像

 さらに少し前の15時。
 地上天気図では梅雨前線がかかっているくらいですが、前線が少し北へ盛り上がっています。

画像

 低気圧・・・まではいかなくても、小規模な擾乱があったようです。
 この日のMETARを貼っておきます。

RORT 092300Z 11007KT 9999 SCT005 SCT016 BKN022 24/23 Q1011 RMK A2988
RORT 100000Z 11007KT 9999 RA SCT010 BKN015 24/23 Q1011 RMK A2988
RORT 100100Z 11007KT 9999 SCT010 BKN018 BKN025 25/24 Q1012 RMK A2988
RORT 100200Z 12008KT 9999 BKN008 25/24 Q1011 RMK A2987
RORT 100500Z 17014KT 9999 SCT030 BKN038 BKNXXX 25/24 Q1009 RMK A2980
RORT 100600Z 17014KT 1500 TS SCT004 BKN026 BKN044 25/24 Q1009 RMK A2980 CB 10KM N
RORT 100630Z 27012KT 0300 +TS OVC003 23/22 Q1009 RMK A2982 CB OHD
RORT 100700Z 24013KT 0200 +TS OVC002 23/22 Q1010 RMK A2983 CB OHD


 キロクアメこそ出ませんでしたが、5月としては記録的な強雨・大雨だったのは事実。
 統計期間が短いとはいえ、10分間降水量・1時間降水量は5月の記録を更新し、日降水量は5月の2位。

画像

   ・多良間空港の5月の記録(気象庁HP)   ・多良間空港の5月10日の実況(気象庁HP)

 上の表で赤で囲んだのは今年観測されたもの。
 日降水量は2つ、10分間降水量・1時間降水量は3つが10位以内に入っています。
 念のため(?)、きのう(16日)までの降水量を足してみたら、307.5ミリ。
 すでに5月としての2位の記録で、1位の記録まで約90ミリ。
 まだ二週間あるので、更新する可能性が高そうです。


    ※ 画像は気象庁のHPから引用しました。

テーマ

関連テーマ 一覧


月別リンク

ブログ気持玉

クリックして気持ちを伝えよう!
ログインしてクリックすれば、自分のブログへのリンクが付きます。
→ログインへ

トラックバック(0件)

タイトル (本文) ブログ名/日時

トラックバック用URL help


自分のブログにトラックバック記事作成(会員用) help

タイトル
本 文

コメント(2件)

内 容 ニックネーム/日時
多良間はSCANですよね。本来なら+TSRAでは・・・と思ったりもしますが。
navarea11
2014/05/20 00:07
SCAN=「航空気象観測所実況気象通報式」ですね。
Wikipediaには「コードの配列はMETAR/SPECIと同じ」とあります。
「コードの配列」がどこまでの範囲を指すのか分かりませんが、
SCANのコードに+TSRAが含まれているのであれば、
確かに今回は+TSRAのほうが自然な感じがします。
たかはし
2014/05/22 17:00

コメントする help

ニックネーム
本 文
*** 多良間空港で時間約120ミリの雨 (5/10) *** Untidy Bookshelves/BIGLOBEウェブリブログ
文字サイズ:       閉じる